sensor_id;sensor_type;location;lat;lon;timestamp;temperature;humidity
3202;DHT22;34843;48.744;8.958;2023-02-28T00:02:15;-3.00;99.90
3202;DHT22;34843;48.744;8.958;2023-02-28T00:04:43;-3.00;99.90
3202;DHT22;34843;48.744;8.958;2023-02-28T00:07:08;-3.00;99.90
3202;DHT22;34843;48.744;8.958;2023-02-28T00:09:34;-3.00;99.90
3202;DHT22;34843;48.744;8.958;2023-02-28T00:11:59;-3.00;99.90
3202;DHT22;34843;48.744;8.958;2023-02-28T00:14:25;-3.10;99.90
3202;DHT22;34843;48.744;8.958;2023-02-28T00:16:50;-3.10;99.90
3202;DHT22;34843;48.744;8.958;2023-02-28T00:19:16;-3.10;99.90
3202;DHT22;34843;48.744;8.958;2023-02-28T00:21:41;-3.10;99.90
3202;DHT22;34843;48.744;8.958;2023-02-28T00:24:08;-3.20;99.90
3202;DHT22;34843;48.744;8.958;2023-02-28T00:26:33;-3.20;99.90
3202;DHT22;34843;48.744;8.958;2023-02-28T00:31:25;-3.20;99.90
3202;DHT22;34843;48.744;8.958;2023-02-28T00:33:51;-3.30;99.90
3202;DHT22;34843;48.744;8.958;2023-02-28T00:36:17;-3.30;99.90
3202;DHT22;34843;48.744;8.958;2023-02-28T00:38:42;-3.30;99.90
3202;DHT22;34843;48.744;8.958;2023-02-28T00:41:08;-3.30;99.90
3202;DHT22;34843;48.744;8.958;2023-02-28T00:43:35;-3.30;99.90
3202;DHT22;34843;48.744;8.958;2023-02-28T00:46:02;-3.30;99.90
3202;DHT22;34843;48.744;8.958;2023-02-28T00:48:28;-3.30;99.90
3202;DHT22;34843;48.744;8.958;2023-02-28T00:50:53;-3.20;99.90
3202;DHT22;34843;48.744;8.958;2023-02-28T00:53:19;-3.30;99.90
3202;DHT22;34843;48.744;8.958;2023-02-28T00:55:45;-3.30;99.90
3202;DHT22;34843;48.744;8.958;2023-02-28T00:58:10;-3.30;99.90
3202;DHT22;34843;48.744;8.958;2023-02-28T01:00:36;-3.30;99.90
3202;DHT22;34843;48.744;8.958;2023-02-28T01:03:01;-3.30;99.90
3202;DHT22;34843;48.744;8.958;2023-02-28T01:05:27;-3.40;99.90
3202;DHT22;34843;48.744;8.958;2023-02-28T01:07:52;-3.40;99.90
3202;DHT22;34843;48.744;8.958;2023-02-28T01:10:18;-3.40;99.90
3202;DHT22;34843;48.744;8.958;2023-02-28T01:12:44;-3.40;99.90
3202;DHT22;34843;48.744;8.958;2023-02-28T01:15:10;-3.40;99.90
3202;DHT22;34843;48.744;8.958;2023-02-28T01:17:36;-3.40;99.90
3202;DHT22;34843;48.744;8.958;2023-02-28T01:20:02;-3.50;99.90
3202;DHT22;34843;48.744;8.958;2023-02-28T01:22:28;-3.50;99.90
3202;DHT22;34843;48.744;8.958;2023-02-28T01:24:53;-3.50;99.90
3202;DHT22;34843;48.744;8.958;2023-02-28T01:27:19;-3.50;99.90
3202;DHT22;34843;48.744;8.958;2023-02-28T01:29:45;-3.50;99.90
3202;DHT22;34843;48.744;8.958;2023-02-28T01:32:10;-3.50;99.90
3202;DHT22;34843;48.744;8.958;2023-02-28T01:34:36;-6.20;99.90
3202;DHT22;34843;48.744;8.958;2023-02-28T01:37:02;-6.70;99.90
3202;DHT22;34843;48.744;8.958;2023-02-28T01:39:28;-3.50;99.90
3202;DHT22;34843;48.744;8.958;2023-02-28T01:41:54;-3.50;99.90
3202;DHT22;34843;48.744;8.958;2023-02-28T01:47:27;-3.50;99.90
3202;DHT22;34843;48.744;8.958;2023-02-28T01:49:54;-3.50;99.90
3202;DHT22;34843;48.744;8.958;2023-02-28T01:52:20;-3.50;99.90
3202;DHT22;34843;48.744;8.958;2023-02-28T01:54:49;-3.50;99.90
3202;DHT22;34843;48.744;8.958;2023-02-28T01:57:18;-3.60;99.90
3202;DHT22;34843;48.744;8.958;2023-02-28T01:59:50;-3.50;99.90
3202;DHT22;34843;48.744;8.958;2023-02-28T02:02:19;-3.50;99.90
3202;DHT22;34843;48.744;8.958;2023-02-28T02:04:59;-3.50;99.90
3202;DHT22;34843;48.744;8.958;2023-02-28T02:07:37;-3.50;99.90
3202;DHT22;34843;48.744;8.958;2023-02-28T02:10:16;-3.50;99.90
3202;DHT22;34843;48.744;8.958;2023-02-28T02:18:27;-3.50;99.90
3202;DHT22;34843;48.744;8.958;2023-02-28T02:21:16;-3.50;99.90
3202;DHT22;34843;48.744;8.958;2023-02-28T02:35:06;-3.50;99.90
3202;DHT22;34843;48.744;8.958;2023-02-28T02:37:47;-3.40;99.90
3202;DHT22;34843;48.744;8.958;2023-02-28T02:40:20;-3.50;99.90
3202;DHT22;34843;48.744;8.958;2023-02-28T02:43:25;-3.40;99.90
3202;DHT22;34843;48.744;8.958;2023-02-28T02:45:59;-3.50;99.90
3202;DHT22;34843;48.744;8.958;2023-02-28T02:48:31;-3.50;99.90
3202;DHT22;34843;48.744;8.958;2023-02-28T02:51:01;-3.40;99.90
3202;DHT22;34843;48.744;8.958;2023-02-28T02:53:33;-3.40;99.90
3202;DHT22;34843;48.744;8.958;2023-02-28T02:56:01;-3.40;99.90
3202;DHT22;34843;48.744;8.958;2023-02-28T02:58:33;-3.40;99.90
3202;DHT22;34843;48.744;8.958;2023-02-28T03:01:01;-3.40;99.90
3202;DHT22;34843;48.744;8.958;2023-02-28T03:03:29;-3.40;99.90
3202;DHT22;34843;48.744;8.958;2023-02-28T03:06:00;-3.40;99.90
3202;DHT22;34843;48.744;8.958;2023-02-28T03:08:27;-3.40;99.90
3202;DHT22;34843;48.744;8.958;2023-02-28T03:10:58;-3.30;99.90
3202;DHT22;34843;48.744;8.958;2023-02-28T03:13:50;-3.30;99.90
3202;DHT22;34843;48.744;8.958;2023-02-28T03:19:19;-3.20;99.90
3202;DHT22;34843;48.744;8.958;2023-02-28T03:22:16;-3.20;99.90
3202;DHT22;34843;48.744;8.958;2023-02-28T03:25:14;-3.20;99.90
3202;DHT22;34843;48.744;8.958;2023-02-28T03:28:17;-3.20;99.90
3202;DHT22;34843;48.744;8.958;2023-02-28T03:30:52;-3.20;99.90
3202;DHT22;34843;48.744;8.958;2023-02-28T03:33:42;-3.20;99.90
3202;DHT22;34843;48.744;8.958;2023-02-28T03:36:13;-3.20;99.90
3202;DHT22;34843;48.744;8.958;2023-02-28T03:38:45;-3.20;99.90
3202;DHT22;34843;48.744;8.958;2023-02-28T03:41:31;-3.10;99.90
3202;DHT22;34843;48.744;8.958;2023-02-28T03:44:03;-3.10;99.90
3202;DHT22;34843;48.744;8.958;2023-02-28T03:46:34;-3.10;99.90
3202;DHT22;34843;48.744;8.958;2023-02-28T03:49:26;-3.10;99.90
3202;DHT22;34843;48.744;8.958;2023-02-28T03:51:53;-3.00;99.90
3202;DHT22;34843;48.744;8.958;2023-02-28T03:54:24;-3.00;99.90
3202;DHT22;34843;48.744;8.958;2023-02-28T03:56:56;-3.00;99.90
3202;DHT22;34843;48.744;8.958;2023-02-28T03:59:29;-3.00;99.90
3202;DHT22;34843;48.744;8.958;2023-02-28T04:01:57;-3.00;99.90
3202;DHT22;34843;48.744;8.958;2023-02-28T04:04:23;-2.90;99.90
3202;DHT22;34843;48.744;8.958;2023-02-28T04:06:51;-3.00;99.90
3202;DHT22;34843;48.744;8.958;2023-02-28T04:09:16;-2.90;99.90
3202;DHT22;34843;48.744;8.958;2023-02-28T04:11:45;-2.90;99.90
3202;DHT22;34843;48.744;8.958;2023-02-28T04:14:11;-2.90;99.90
3202;DHT22;34843;48.744;8.958;2023-02-28T04:16:40;-2.90;99.90
3202;DHT22;34843;48.744;8.958;2023-02-28T04:19:07;-2.90;99.90
3202;DHT22;34843;48.744;8.958;2023-02-28T04:21:36;-2.20;99.90
3202;DHT22;34843;48.744;8.958;2023-02-28T04:24:02;-2.90;99.90
3202;DHT22;34843;48.744;8.958;2023-02-28T04:26:32;-2.90;99.90
3202;DHT22;34843;48.744;8.958;2023-02-28T04:28:59;-2.90;99.90
3202;DHT22;34843;48.744;8.958;2023-02-28T04:31:25;-2.90;99.90
3202;DHT22;34843;48.744;8.958;2023-02-28T04:33:50;-2.90;99.90
3202;DHT22;34843;48.744;8.958;2023-02-28T04:36:16;-2.90;99.90
3202;DHT22;34843;48.744;8.958;2023-02-28T04:38:43;-2.90;99.90
3202;DHT22;34843;48.744;8.958;2023-02-28T04:41:09;-2.80;99.90
3202;DHT22;34843;48.744;8.958;2023-02-28T04:43:34;-2.70;99.90
3202;DHT22;34843;48.744;8.958;2023-02-28T04:46:02;-2.80;99.90
3202;DHT22;34843;48.744;8.958;2023-02-28T04:48:28;-2.70;99.90
3202;DHT22;34843;48.744;8.958;2023-02-28T04:50:54;-2.70;99.90
3202;DHT22;34843;48.744;8.958;2023-02-28T04:53:20;-2.60;99.90
3202;DHT22;34843;48.744;8.958;2023-02-28T04:55:45;-2.60;99.90
3202;DHT22;34843;48.744;8.958;2023-02-28T04:58:14;-2.60;99.90
3202;DHT22;34843;48.744;8.958;2023-02-28T05:00:40;-2.60;99.90
3202;DHT22;34843;48.744;8.958;2023-02-28T05:03:05;-2.60;99.90
3202;DHT22;34843;48.744;8.958;2023-02-28T05:05:31;-2.60;99.90
3202;DHT22;34843;48.744;8.958;2023-02-28T05:07:57;-2.60;99.90
3202;DHT22;34843;48.744;8.958;2023-02-28T05:10:23;-2.60;99.90
3202;DHT22;34843;48.744;8.958;2023-02-28T05:12:49;-2.60;99.90
3202;DHT22;34843;48.744;8.958;2023-02-28T05:15:15;-2.60;99.90
3202;DHT22;34843;48.744;8.958;2023-02-28T05:17:41;-2.50;99.90
3202;DHT22;34843;48.744;8.958;2023-02-28T05:20:08;-2.50;99.90
3202;DHT22;34843;48.744;8.958;2023-02-28T05:22:39;-2.60;99.90
3202;DHT22;34843;48.744;8.958;2023-02-28T05:25:05;-2.60;99.90
3202;DHT22;34843;48.744;8.958;2023-02-28T05:27:31;-2.50;99.90
3202;DHT22;34843;48.744;8.958;2023-02-28T05:29:56;-2.50;99.90
3202;DHT22;34843;48.744;8.958;2023-02-28T05:32:22;-2.60;99.90
3202;DHT22;34843;48.744;8.958;2023-02-28T05:34:48;-2.50;99.90
3202;DHT22;34843;48.744;8.958;2023-02-28T05:37:14;-2.20;99.90
3202;DHT22;34843;48.744;8.958;2023-02-28T05:39:41;-2.50;99.90
3202;DHT22;34843;48.744;8.958;2023-02-28T05:42:07;-2.50;99.90
3202;DHT22;34843;48.744;8.958;2023-02-28T05:44:33;-2.50;99.90
3202;DHT22;34843;48.744;8.958;2023-02-28T05:46:58;-2.50;99.90
3202;DHT22;34843;48.744;8.958;2023-02-28T05:49:24;-2.50;99.90
3202;DHT22;34843;48.744;8.958;2023-02-28T05:51:49;-2.60;99.90
3202;DHT22;34843;48.744;8.958;2023-02-28T05:54:15;-2.50;99.90
3202;DHT22;34843;48.744;8.958;2023-02-28T05:56:40;-2.50;99.90
3202;DHT22;34843;48.744;8.958;2023-02-28T05:59:09;-2.50;99.90
3202;DHT22;34843;48.744;8.958;2023-02-28T06:01:41;-2.70;99.90
3202;DHT22;34843;48.744;8.958;2023-02-28T06:04:09;-2.50;99.90
3202;DHT22;34843;48.744;8.958;2023-02-28T06:06:36;-2.50;99.90
3202;DHT22;34843;48.744;8.958;2023-02-28T06:09:03;-2.50;99.90
3202;DHT22;34843;48.744;8.958;2023-02-28T06:11:29;-2.20;99.90
3202;DHT22;34843;48.744;8.958;2023-02-28T06:13:59;-2.50;99.90
3202;DHT22;34843;48.744;8.958;2023-02-28T06:16:27;-2.50;99.90
3202;DHT22;34843;48.744;8.958;2023-02-28T06:18:52;-2.50;99.90
3202;DHT22;34843;48.744;8.958;2023-02-28T06:21:21;-2.50;99.90
3202;DHT22;34843;48.744;8.958;2023-02-28T06:23:46;-2.50;99.90
3202;DHT22;34843;48.744;8.958;2023-02-28T06:26:12;-2.50;99.90
3202;DHT22;34843;48.744;8.958;2023-02-28T06:28:37;-2.50;99.90
3202;DHT22;34843;48.744;8.958;2023-02-28T06:31:11;-2.50;99.90
3202;DHT22;34843;48.744;8.958;2023-02-28T06:33:37;-2.50;99.90
3202;DHT22;34843;48.744;8.958;2023-02-28T06:36:04;-2.50;99.90
3202;DHT22;34843;48.744;8.958;2023-02-28T06:38:31;-2.50;99.90
3202;DHT22;34843;48.744;8.958;2023-02-28T06:40:58;-2.50;99.90
3202;DHT22;34843;48.744;8.958;2023-02-28T06:43:24;-2.40;99.90
3202;DHT22;34843;48.744;8.958;2023-02-28T06:45:54;-2.50;99.90
3202;DHT22;34843;48.744;8.958;2023-02-28T06:48:21;-2.40;99.90
3202;DHT22;34843;48.744;8.958;2023-02-28T06:50:46;-2.40;99.90
3202;DHT22;34843;48.744;8.958;2023-02-28T06:53:12;-2.30;99.90
3202;DHT22;34843;48.744;8.958;2023-02-28T06:55:39;-2.40;99.90
3202;DHT22;34843;48.744;8.958;2023-02-28T06:58:04;-2.40;99.90
3202;DHT22;34843;48.744;8.958;2023-02-28T07:00:40;-2.40;99.90
3202;DHT22;34843;48.744;8.958;2023-02-28T07:03:06;-2.30;99.90
3202;DHT22;34843;48.744;8.958;2023-02-28T07:05:31;-2.30;99.90
3202;DHT22;34843;48.744;8.958;2023-02-28T07:07:59;-2.30;99.90
3202;DHT22;34843;48.744;8.958;2023-02-28T07:10:25;-2.40;99.90
3202;DHT22;34843;48.744;8.958;2023-02-28T07:12:50;-2.30;99.90
3202;DHT22;34843;48.744;8.958;2023-02-28T07:15:16;-2.30;99.90
3202;DHT22;34843;48.744;8.958;2023-02-28T07:17:42;-2.30;99.90
3202;DHT22;34843;48.744;8.958;2023-02-28T07:20:08;-2.20;99.90
3202;DHT22;34843;48.744;8.958;2023-02-28T07:22:33;-2.20;99.90
3202;DHT22;34843;48.744;8.958;2023-02-28T07:24:59;-2.10;99.90
3202;DHT22;34843;48.744;8.958;2023-02-28T07:27:24;-2.00;99.90
3202;DHT22;34843;48.744;8.958;2023-02-28T07:29:51;-1.90;99.90
3202;DHT22;34843;48.744;8.958;2023-02-28T07:32:16;-1.80;99.90
3202;DHT22;34843;48.744;8.958;2023-02-28T07:34:42;-1.70;99.90
3202;DHT22;34843;48.744;8.958;2023-02-28T07:37:07;-1.70;99.90
3202;DHT22;34843;48.744;8.958;2023-02-28T07:39:33;-1.70;99.90
3202;DHT22;34843;48.744;8.958;2023-02-28T07:41:58;-1.60;99.90
3202;DHT22;34843;48.744;8.958;2023-02-28T07:44:25;-1.60;99.90
3202;DHT22;34843;48.744;8.958;2023-02-28T07:46:51;-1.60;99.90
3202;DHT22;34843;48.744;8.958;2023-02-28T07:49:18;-1.60;99.90
3202;DHT22;34843;48.744;8.958;2023-02-28T07:51:44;-1.60;99.90
3202;DHT22;34843;48.744;8.958;2023-02-28T07:54:09;-1.50;99.90
3202;DHT22;34843;48.744;8.958;2023-02-28T07:56:35;-1.50;99.90
3202;DHT22;34843;48.744;8.958;2023-02-28T07:59:00;-1.50;99.90
3202;DHT22;34843;48.744;8.958;2023-02-28T08:01:27;-1.60;99.90
3202;DHT22;34843;48.744;8.958;2023-02-28T08:03:52;-1.60;99.90
3202;DHT22;34843;48.744;8.958;2023-02-28T08:06:22;-1.60;99.90
3202;DHT22;34843;48.744;8.958;2023-02-28T08:08:49;-1.50;99.90
3202;DHT22;34843;48.744;8.958;2023-02-28T08:11:15;-1.70;99.90
3202;DHT22;34843;48.744;8.958;2023-02-28T08:13:41;-1.60;99.90
3202;DHT22;34843;48.744;8.958;2023-02-28T08:16:11;-1.60;99.90
3202;DHT22;34843;48.744;8.958;2023-02-28T08:18:37;-1.50;99.90
3202;DHT22;34843;48.744;8.958;2023-02-28T08:21:07;-1.40;99.90
3202;DHT22;34843;48.744;8.958;2023-02-28T08:23:34;-1.40;99.90
3202;DHT22;34843;48.744;8.958;2023-02-28T08:26:00;-1.30;99.90
3202;DHT22;34843;48.744;8.958;2023-02-28T08:28:26;-1.40;99.90
3202;DHT22;34843;48.744;8.958;2023-02-28T08:30:51;-1.40;99.90
3202;DHT22;34843;48.744;8.958;2023-02-28T08:33:16;-1.30;99.90
3202;DHT22;34843;48.744;8.958;2023-02-28T08:35:42;-0.40;99.90
3202;DHT22;34843;48.744;8.958;2023-02-28T08:38:07;-1.30;99.90
3202;DHT22;34843;48.744;8.958;2023-02-28T08:40:33;-1.30;99.90
3202;DHT22;34843;48.744;8.958;2023-02-28T08:42:58;-1.20;99.90
3202;DHT22;34843;48.744;8.958;2023-02-28T08:45:25;-1.20;99.90
3202;DHT22;34843;48.744;8.958;2023-02-28T08:47:51;-1.10;99.90
3202;DHT22;34843;48.744;8.958;2023-02-28T08:50:17;-1.20;99.90
3202;DHT22;34843;48.744;8.958;2023-02-28T08:52:43;-1.40;99.90
3202;DHT22;34843;48.744;8.958;2023-02-28T08:55:10;-1.10;99.90
3202;DHT22;34843;48.744;8.958;2023-02-28T08:57:36;-1.10;99.90
3202;DHT22;34843;48.744;8.958;2023-02-28T09:00:02;-1.00;99.90
3202;DHT22;34843;48.744;8.958;2023-02-28T09:02:30;-1.00;99.90
3202;DHT22;34843;48.744;8.958;2023-02-28T09:04:57;-0.90;99.90
3202;DHT22;34843;48.744;8.958;2023-02-28T09:07:23;-0.90;99.90
3202;DHT22;34843;48.744;8.958;2023-02-28T09:09:49;-0.90;99.90
3202;DHT22;34843;48.744;8.958;2023-02-28T09:12:24;-0.90;99.90
3202;DHT22;34843;48.744;8.958;2023-02-28T09:14:50;-0.70;99.90
3202;DHT22;34843;48.744;8.958;2023-02-28T09:17:16;-0.70;99.90
3202;DHT22;34843;48.744;8.958;2023-02-28T09:19:42;-0.50;99.90
3202;DHT22;34843;48.744;8.958;2023-02-28T09:22:08;-0.50;99.90
3202;DHT22;34843;48.744;8.958;2023-02-28T09:24:35;-0.60;99.90
3202;DHT22;34843;48.744;8.958;2023-02-28T09:27:01;-0.70;99.90
3202;DHT22;34843;48.744;8.958;2023-02-28T09:29:26;-0.70;99.90
3202;DHT22;34843;48.744;8.958;2023-02-28T09:31:52;-0.60;99.90
3202;DHT22;34843;48.744;8.958;2023-02-28T09:34:17;-0.60;99.90
3202;DHT22;34843;48.744;8.958;2023-02-28T09:36:43;-0.30;99.90
3202;DHT22;34843;48.744;8.958;2023-02-28T09:39:09;-0.60;99.90
3202;DHT22;34843;48.744;8.958;2023-02-28T09:41:43;-0.60;99.90
3202;DHT22;34843;48.744;8.958;2023-02-28T09:44:30;-0.30;99.90
3202;DHT22;34843;48.744;8.958;2023-02-28T09:47:00;-0.40;99.90
3202;DHT22;34843;48.744;8.958;2023-02-28T09:49:37;-0.40;99.90
3202;DHT22;34843;48.744;8.958;2023-02-28T09:52:48;-0.50;99.90
3202;DHT22;34843;48.744;8.958;2023-02-28T09:54:55;-0.30;99.90
3202;DHT22;34843;48.744;8.958;2023-02-28T09:57:40;-0.30;99.90
3202;DHT22;34843;48.744;8.958;2023-02-28T10:11:32;0.10;99.90
3202;DHT22;34843;48.744;8.958;2023-02-28T10:14:10;0.20;99.90
3202;DHT22;34843;48.744;8.958;2023-02-28T10:16:49;0.30;99.90
3202;DHT22;34843;48.744;8.958;2023-02-28T10:21:59;0.20;99.90
3202;DHT22;34843;48.744;8.958;2023-02-28T10:24:41;0.30;99.90
3202;DHT22;34843;48.744;8.958;2023-02-28T10:27:24;0.30;99.90
3202;DHT22;34843;48.744;8.958;2023-02-28T10:29:52;0.50;99.90
3202;DHT22;34843;48.744;8.958;2023-02-28T10:32:40;1.10;99.90
3202;DHT22;34843;48.744;8.958;2023-02-28T10:35:17;0.80;99.90
3202;DHT22;34843;48.744;8.958;2023-02-28T10:37:46;0.80;99.90
3202;DHT22;34843;48.744;8.958;2023-02-28T10:45:19;0.70;99.90
3202;DHT22;34843;48.744;8.958;2023-02-28T10:48:00;1.00;99.90
3202;DHT22;34843;48.744;8.958;2023-02-28T11:01:16;1.20;99.90
3202;DHT22;34843;48.744;8.958;2023-02-28T11:03:42;1.40;99.90
3202;DHT22;34843;48.744;8.958;2023-02-28T11:06:15;1.10;99.90
3202;DHT22;34843;48.744;8.958;2023-02-28T11:08:55;1.40;99.90
3202;DHT22;34843;48.744;8.958;2023-02-28T11:11:23;1.50;99.90
3202;DHT22;34843;48.744;8.958;2023-02-28T11:14:02;1.60;99.90
3202;DHT22;34843;48.744;8.958;2023-02-28T11:16:34;1.60;99.90
3202;DHT22;34843;48.744;8.958;2023-02-28T11:19:00;1.80;99.90
3202;DHT22;34843;48.744;8.958;2023-02-28T11:21:33;2.00;99.90
3202;DHT22;34843;48.744;8.958;2023-02-28T11:24:04;2.00;99.90
3202;DHT22;34843;48.744;8.958;2023-02-28T11:26:46;2.70;99.90
3202;DHT22;34843;48.744;8.958;2023-02-28T11:29:25;2.20;99.90
3202;DHT22;34843;48.744;8.958;2023-02-28T11:34:28;2.00;99.90
3202;DHT22;34843;48.744;8.958;2023-02-28T11:36:55;2.80;99.90
3202;DHT22;34843;48.744;8.958;2023-02-28T11:39:22;2.50;99.90
3202;DHT22;34843;48.744;8.958;2023-02-28T11:44:47;2.00;99.90
3202;DHT22;34843;48.744;8.958;2023-02-28T11:50:18;2.00;99.90
3202;DHT22;34843;48.744;8.958;2023-02-28T11:52:52;2.10;99.90
3202;DHT22;34843;48.744;8.958;2023-02-28T11:55:36;2.10;99.90
3202;DHT22;34843;48.744;8.958;2023-02-28T12:00:56;2.10;99.90
3202;DHT22;34843;48.744;8.958;2023-02-28T12:03:43;2.30;99.90
3202;DHT22;34843;48.744;8.958;2023-02-28T12:11:49;2.60;99.90
3202;DHT22;34843;48.744;8.958;2023-02-28T12:14:25;2.40;99.90
3202;DHT22;34843;48.744;8.958;2023-02-28T12:16:59;2.40;99.90
3202;DHT22;34843;48.744;8.958;2023-02-28T12:19:47;2.40;99.90
3202;DHT22;34843;48.744;8.958;2023-02-28T12:22:27;2.60;99.90
3202;DHT22;34843;48.744;8.958;2023-02-28T12:27:43;2.90;99.90
3202;DHT22;34843;48.744;8.958;2023-02-28T12:30:25;3.00;99.90
3202;DHT22;34843;48.744;8.958;2023-02-28T12:32:55;3.30;99.90
3202;DHT22;34843;48.744;8.958;2023-02-28T12:35:26;2.80;99.90
3202;DHT22;34843;48.744;8.958;2023-02-28T12:38:19;3.90;99.90
3202;DHT22;34843;48.744;8.958;2023-02-28T12:41:14;2.90;99.90
3202;DHT22;34843;48.744;8.958;2023-02-28T12:43:45;3.00;99.90
3202;DHT22;34843;48.744;8.958;2023-02-28T12:46:19;3.00;99.90
3202;DHT22;34843;48.744;8.958;2023-02-28T12:48:50;3.00;99.90
3202;DHT22;34843;48.744;8.958;2023-02-28T12:51:18;3.10;99.90
3202;DHT22;34843;48.744;8.958;2023-02-28T12:54:08;3.10;99.90
3202;DHT22;34843;48.744;8.958;2023-02-28T12:56:42;3.80;99.90
3202;DHT22;34843;48.744;8.958;2023-02-28T12:59:19;3.10;99.90
3202;DHT22;34843;48.744;8.958;2023-02-28T13:02:09;3.10;99.90
3202;DHT22;34843;48.744;8.958;2023-02-28T13:10:11;3.40;99.90
3202;DHT22;34843;48.744;8.958;2023-02-28T13:12:50;3.50;99.90
3202;DHT22;34843;48.744;8.958;2023-02-28T13:15:22;3.50;99.90
3202;DHT22;34843;48.744;8.958;2023-02-28T13:17:52;3.70;99.90
3202;DHT22;34843;48.744;8.958;2023-02-28T13:22:47;3.80;99.90
3202;DHT22;34843;48.744;8.958;2023-02-28T13:28:09;3.70;99.90
3202;DHT22;34843;48.744;8.958;2023-02-28T13:44:11;3.80;99.90
3202;DHT22;34843;48.744;8.958;2023-02-28T13:49:25;4.00;99.90
3202;DHT22;34843;48.744;8.958;2023-02-28T13:55:06;4.30;99.90
3202;DHT22;34843;48.744;8.958;2023-02-28T13:57:52;4.40;99.90
3202;DHT22;34843;48.744;8.958;2023-02-28T14:03:05;4.20;99.90
3202;DHT22;34843;48.744;8.958;2023-02-28T14:05:34;4.20;99.90
3202;DHT22;34843;48.744;8.958;2023-02-28T14:10:42;4.20;99.90
3202;DHT22;34843;48.744;8.958;2023-02-28T14:16:03;4.10;99.90
3202;DHT22;34843;48.744;8.958;2023-02-28T14:18:35;4.30;99.90
3202;DHT22;34843;48.744;8.958;2023-02-28T14:29:14;4.20;99.90
3202;DHT22;34843;48.744;8.958;2023-02-28T14:32:05;4.10;99.90
3202;DHT22;34843;48.744;8.958;2023-02-28T14:34:48;4.10;99.90
3202;DHT22;34843;48.744;8.958;2023-02-28T14:37:20;4.10;99.90
3202;DHT22;34843;48.744;8.958;2023-02-28T14:39:49;6.70;99.90
3202;DHT22;34843;48.744;8.958;2023-02-28T14:42:33;4.20;99.90
3202;DHT22;34843;48.744;8.958;2023-02-28T14:44:59;4.20;99.90
3202;DHT22;34843;48.744;8.958;2023-02-28T14:47:30;4.40;99.90
3202;DHT22;34843;48.744;8.958;2023-02-28T14:49:57;4.30;99.90
3202;DHT22;34843;48.744;8.958;2023-02-28T14:52:27;4.30;99.90
3202;DHT22;34843;48.744;8.958;2023-02-28T14:54:58;4.30;99.90
3202;DHT22;34843;48.744;8.958;2023-02-28T14:57:30;4.20;99.90
3202;DHT22;34843;48.744;8.958;2023-02-28T15:00:15;4.40;99.90
3202;DHT22;34843;48.744;8.958;2023-02-28T15:02:42;4.40;99.90
3202;DHT22;34843;48.744;8.958;2023-02-28T15:07:47;4.50;99.90
3202;DHT22;34843;48.744;8.958;2023-02-28T15:12:52;4.60;99.90
3202;DHT22;34843;48.744;8.958;2023-02-28T15:15:18;4.50;99.90
3202;DHT22;34843;48.744;8.958;2023-02-28T15:17:53;4.90;99.90
3202;DHT22;34843;48.744;8.958;2023-02-28T15:20:20;4.50;99.90
3202;DHT22;34843;48.744;8.958;2023-02-28T15:22:47;4.50;99.90
3202;DHT22;34843;48.744;8.958;2023-02-28T15:25:21;4.50;99.90
3202;DHT22;34843;48.744;8.958;2023-02-28T15:27:50;4.50;99.90
3202;DHT22;34843;48.744;8.958;2023-02-28T15:30:28;4.50;99.90
3202;DHT22;34843;48.744;8.958;2023-02-28T15:33:19;4.40;99.90
3202;DHT22;34843;48.744;8.958;2023-02-28T15:35:46;4.30;99.90
3202;DHT22;34843;48.744;8.958;2023-02-28T15:38:25;4.40;99.90
3202;DHT22;34843;48.744;8.958;2023-02-28T15:40:56;4.30;99.90
3202;DHT22;34843;48.744;8.958;2023-02-28T15:48:35;4.20;99.90
3202;DHT22;34843;48.744;8.958;2023-02-28T15:51:18;4.20;99.90
3202;DHT22;34843;48.744;8.958;2023-02-28T15:56:28;4.20;99.90
3202;DHT22;34843;48.744;8.958;2023-02-28T15:59:03;4.20;99.90
3202;DHT22;34843;48.744;8.958;2023-02-28T16:01:39;4.10;99.90
3202;DHT22;34843;48.744;8.958;2023-02-28T16:04:18;4.00;99.90
3202;DHT22;34843;48.744;8.958;2023-02-28T16:07:01;3.90;99.90
3202;DHT22;34843;48.744;8.958;2023-02-28T16:09:27;3.90;99.90
3202;DHT22;34843;48.744;8.958;2023-02-28T16:11:56;3.90;99.90
3202;DHT22;34843;48.744;8.958;2023-02-28T16:14:24;3.80;99.90
3202;DHT22;34843;48.744;8.958;2023-02-28T16:16:54;3.80;99.90
3202;DHT22;34843;48.744;8.958;2023-02-28T16:19:21;4.10;99.90
3202;DHT22;34843;48.744;8.958;2023-02-28T16:21:48;4.20;99.90
3202;DHT22;34843;48.744;8.958;2023-02-28T16:24:14;3.60;99.90
3202;DHT22;34843;48.744;8.958;2023-02-28T16:26:41;3.60;99.90
3202;DHT22;34843;48.744;8.958;2023-02-28T16:29:09;3.60;99.90
3202;DHT22;34843;48.744;8.958;2023-02-28T16:31:38;3.50;99.90
3202;DHT22;34843;48.744;8.958;2023-02-28T16:34:04;3.50;99.90
3202;DHT22;34843;48.744;8.958;2023-02-28T16:36:30;3.50;99.90
3202;DHT22;34843;48.744;8.958;2023-02-28T16:38:55;3.40;99.90
3202;DHT22;34843;48.744;8.958;2023-02-28T16:41:24;3.30;99.90
3202;DHT22;34843;48.744;8.958;2023-02-28T16:43:52;3.30;99.90
3202;DHT22;34843;48.744;8.958;2023-02-28T16:46:20;3.20;99.90
3202;DHT22;34843;48.744;8.958;2023-02-28T16:48:46;3.20;99.90
3202;DHT22;34843;48.744;8.958;2023-02-28T16:51:16;3.20;99.90
3202;DHT22;34843;48.744;8.958;2023-02-28T16:53:43;3.10;99.90
3202;DHT22;34843;48.744;8.958;2023-02-28T16:56:19;3.50;99.90
3202;DHT22;34843;48.744;8.958;2023-02-28T16:58:46;3.00;99.90
3202;DHT22;34843;48.744;8.958;2023-02-28T17:01:12;2.90;99.90
3202;DHT22;34843;48.744;8.958;2023-02-28T17:03:37;2.80;99.90
3202;DHT22;34843;48.744;8.958;2023-02-28T17:06:04;3.40;99.90
3202;DHT22;34843;48.744;8.958;2023-02-28T17:08:30;2.70;99.90
3202;DHT22;34843;48.744;8.958;2023-02-28T17:10:57;3.40;99.90
3202;DHT22;34843;48.744;8.958;2023-02-28T17:13:23;2.50;99.90
3202;DHT22;34843;48.744;8.958;2023-02-28T17:15:48;2.40;99.90
3202;DHT22;34843;48.744;8.958;2023-02-28T17:18:17;2.40;99.90
3202;DHT22;34843;48.744;8.958;2023-02-28T17:20:44;2.30;99.90
3202;DHT22;34843;48.744;8.958;2023-02-28T17:23:11;2.30;99.90
3202;DHT22;34843;48.744;8.958;2023-02-28T17:25:36;2.30;99.90
3202;DHT22;34843;48.744;8.958;2023-02-28T17:28:02;2.20;99.90
3202;DHT22;34843;48.744;8.958;2023-02-28T17:30:28;2.20;99.90
3202;DHT22;34843;48.744;8.958;2023-02-28T17:32:55;2.00;99.90
3202;DHT22;34843;48.744;8.958;2023-02-28T17:35:21;2.00;99.90
3202;DHT22;34843;48.744;8.958;2023-02-28T17:37:47;2.40;99.90
3202;DHT22;34843;48.744;8.958;2023-02-28T17:40:18;1.90;99.90
3202;DHT22;34843;48.744;8.958;2023-02-28T17:42:44;1.90;99.90
3202;DHT22;34843;48.744;8.958;2023-02-28T17:45:12;1.90;99.90
3202;DHT22;34843;48.744;8.958;2023-02-28T17:47:38;1.90;99.90
3202;DHT22;34843;48.744;8.958;2023-02-28T17:50:04;1.80;99.90
3202;DHT22;34843;48.744;8.958;2023-02-28T17:52:29;1.70;99.90
3202;DHT22;34843;48.744;8.958;2023-02-28T17:54:55;1.70;99.90
3202;DHT22;34843;48.744;8.958;2023-02-28T17:57:20;2.00;99.90
3202;DHT22;34843;48.744;8.958;2023-02-28T17:59:46;1.60;99.90
3202;DHT22;34843;48.744;8.958;2023-02-28T18:02:12;2.00;99.90
3202;DHT22;34843;48.744;8.958;2023-02-28T18:04:38;1.50;99.90
3202;DHT22;34843;48.744;8.958;2023-02-28T18:07:06;1.50;99.90
3202;DHT22;34843;48.744;8.958;2023-02-28T18:09:31;1.40;99.90
3202;DHT22;34843;48.744;8.958;2023-02-28T18:11:57;2.20;99.90
3202;DHT22;34843;48.744;8.958;2023-02-28T18:14:24;1.30;99.90
3202;DHT22;34843;48.744;8.958;2023-02-28T18:16:52;1.90;99.90
3202;DHT22;34843;48.744;8.958;2023-02-28T18:19:18;1.20;99.90
3202;DHT22;34843;48.744;8.958;2023-02-28T18:21:45;1.00;99.90
3202;DHT22;34843;48.744;8.958;2023-02-28T18:24:11;1.00;99.90